createdAt,value
2023-01-21T00:00:10.991Z,4.52
2023-01-21T00:02:52.040Z,4.22
2023-01-21T00:05:18.732Z,4.34
2023-01-21T00:07:48.444Z,4.34
2023-01-21T00:10:18.876Z,4.50
2023-01-21T00:12:53.967Z,4.46
2023-01-21T00:15:23.347Z,4.57
2023-01-21T00:18:02.377Z,4.66
2023-01-21T00:20:38.643Z,4.51
2023-01-21T00:23:11.935Z,4.53
2023-01-21T00:25:44.451Z,4.20
2023-01-21T00:28:30.932Z,4.42
2023-01-21T00:30:59.468Z,4.43
2023-01-21T00:33:47.134Z,4.38
2023-01-21T00:36:22.733Z,4.00
2023-01-21T00:38:51.712Z,4.26
2023-01-21T00:41:18.304Z,4.23
2023-01-21T00:43:45.062Z,4.32
2023-01-21T00:46:14.977Z,4.32
2023-01-21T00:48:49.529Z,4.26
2023-01-21T00:51:25.998Z,4.29
2023-01-21T00:54:12.247Z,4.33
2023-01-21T00:56:49.324Z,4.33
2023-01-21T00:59:29.669Z,4.21
2023-01-21T01:02:03.962Z,4.43
2023-01-21T01:07:12.321Z,4.43
2023-01-21T01:09:38.964Z,4.31
2023-01-21T01:12:06.434Z,4.01
2023-01-21T01:14:33.072Z,4.35
2023-01-21T01:17:02.639Z,4.33
2023-01-21T01:19:32.226Z,4.28
2023-01-21T01:22:01.995Z,4.16
2023-01-21T01:24:32.749Z,4.23
2023-01-21T01:26:59.324Z,4.23
2023-01-21T01:29:34.033Z,4.18
2023-01-21T01:32:00.554Z,4.10
2023-01-21T01:34:31.481Z,4.19
2023-01-21T01:37:01.908Z,4.15
2023-01-21T01:39:29.022Z,4.24
2023-01-21T01:42:05.098Z,4.31
2023-01-21T01:45:02.312Z,4.27
2023-01-21T01:47:37.073Z,4.15
2023-01-21T01:50:07.723Z,3.16
2023-01-21T01:52:35.149Z,4.17
2023-01-21T01:55:06.100Z,3.93
2023-01-21T01:57:38.330Z,4.29
2023-01-21T02:00:06.297Z,4.22
2023-01-21T02:02:43.366Z,4.25
2023-01-21T02:05:12.351Z,4.21
2023-01-21T02:07:42.859Z,3.82
2023-01-21T02:10:20.166Z,2.52
2023-01-21T02:12:46.940Z,4.14
2023-01-21T02:18:14.037Z,3.97
2023-01-21T02:20:58.943Z,4.04
2023-01-21T02:24:12.951Z,4.04
2023-01-21T02:27:07.977Z,3.51
2023-01-21T02:29:56.261Z,3.63
2023-01-21T02:32:53.794Z,3.96
2023-01-21T02:35:53.790Z,3.92
2023-01-21T02:38:36.720Z,3.80
2023-01-21T02:41:33.766Z,3.92
2023-01-21T02:44:30.869Z,2.62
2023-01-21T02:47:06.823Z,3.95
2023-01-21T02:49:57.848Z,3.97
2023-01-21T02:52:29.891Z,3.99
2023-01-21T02:55:08.210Z,3.73
2023-01-21T02:58:10.127Z,3.97
2023-01-21T03:01:02.777Z,3.76
2023-01-21T03:03:53.572Z,4.00
2023-01-21T03:07:14.116Z,3.98
2023-01-21T03:09:41.907Z,3.89
2023-01-21T03:13:12.545Z,3.70
2023-01-21T03:16:06.922Z,3.64
2023-01-21T03:18:40.399Z,3.46
2023-01-21T03:21:24.697Z,3.80
2023-01-21T03:23:53.006Z,3.81
2023-01-21T03:26:27.936Z,3.78
2023-01-21T03:28:58.254Z,3.71
2023-01-21T03:31:29.257Z,3.79
2023-01-21T03:34:00.361Z,3.65
2023-01-21T03:36:37.202Z,3.71
2023-01-21T03:39:18.347Z,3.67
2023-01-21T03:41:57.015Z,3.71
2023-01-21T03:44:32.708Z,3.69
2023-01-21T03:47:22.796Z,3.87
2023-01-21T03:50:17.844Z,3.83
2023-01-21T03:52:45.866Z,3.77
2023-01-21T03:55:14.498Z,3.74
2023-01-21T03:57:41.199Z,3.70
2023-01-21T04:00:08.499Z,2.62
2023-01-21T04:02:45.016Z,3.30
2023-01-21T04:05:14.274Z,3.66
2023-01-21T04:07:42.340Z,3.73
2023-01-21T04:10:10.074Z,3.66
2023-01-21T04:12:41.410Z,3.70
2023-01-21T04:15:12.182Z,3.76
2023-01-21T04:17:43.742Z,3.76
2023-01-21T04:20:11.012Z,3.78
2023-01-21T04:22:37.924Z,3.76
2023-01-21T04:25:17.975Z,3.48
2023-01-21T04:27:51.856Z,3.77
2023-01-21T04:30:20.653Z,3.68
2023-01-21T04:32:47.316Z,3.64
2023-01-21T04:35:14.019Z,3.48
2023-01-21T04:37:46.699Z,3.78
2023-01-21T04:40:16.485Z,3.71
2023-01-21T04:42:43.272Z,3.17
2023-01-21T04:45:10.308Z,3.93
2023-01-21T04:47:41.245Z,3.58
2023-01-21T04:50:10.253Z,3.86
2023-01-21T04:52:52.349Z,3.88
2023-01-21T04:55:18.922Z,3.95
2023-01-21T04:57:49.133Z,3.88
2023-01-21T05:00:19.583Z,3.98
2023-01-21T05:02:46.262Z,3.92
2023-01-21T05:05:13.106Z,3.77
2023-01-21T05:07:42.642Z,3.74
2023-01-21T05:10:17.825Z,4.14
2023-01-21T05:12:44.754Z,3.94
2023-01-21T05:15:12.292Z,4.00
2023-01-21T05:17:46.829Z,3.69
2023-01-21T05:20:16.168Z,4.03
2023-01-21T05:22:46.695Z,3.33
2023-01-21T05:25:16.570Z,4.01
2023-01-21T05:27:53.545Z,3.96
2023-01-21T05:30:25.763Z,4.02
2023-01-21T05:32:55.373Z,4.12
2023-01-21T05:35:24.572Z,4.18
2023-01-21T05:38:05.181Z,4.24
2023-01-21T05:40:38.605Z,4.09
2023-01-21T05:43:05.298Z,4.28
2023-01-21T05:45:32.470Z,4.17
2023-01-21T05:47:59.078Z,4.24
2023-01-21T05:50:30.832Z,4.29
2023-01-21T05:53:01.869Z,4.30
2023-01-21T05:55:28.486Z,4.26
2023-01-21T05:57:55.198Z,4.12
2023-01-21T06:00:22.232Z,4.29
2023-01-21T06:02:51.924Z,4.24
2023-01-21T06:05:41.749Z,2.98
2023-01-21T06:08:18.004Z,4.23
2023-01-21T06:10:45.266Z,4.09
2023-01-21T06:13:17.960Z,4.22
2023-01-21T06:15:44.700Z,4.30
2023-01-21T06:18:15.595Z,4.22
2023-01-21T06:20:48.089Z,4.28
2023-01-21T06:23:14.918Z,4.19
2023-01-21T06:25:43.623Z,4.22
2023-01-21T06:28:17.147Z,4.24
2023-01-21T06:30:57.943Z,3.87
2023-01-21T06:34:06.435Z,3.85
2023-01-21T06:36:22.202Z,4.31
2023-01-21T06:38:57.841Z,4.31
2023-01-21T06:41:24.463Z,4.33
2023-01-21T06:43:51.097Z,4.28
2023-01-21T06:49:03.900Z,4.16
2023-01-21T06:51:51.990Z,4.13
2023-01-21T06:54:24.212Z,3.88
2023-01-21T06:56:50.701Z,4.12
2023-01-21T06:59:43.093Z,3.96
2023-01-21T07:02:13.738Z,3.80
2023-01-21T07:04:54.485Z,4.18
2023-01-21T07:07:24.877Z,3.91
2023-01-21T07:09:54.489Z,4.09
2023-01-21T07:12:21.230Z,4.19
2023-01-21T07:14:47.855Z,4.18
2023-01-21T07:17:24.782Z,3.83
2023-01-21T07:19:51.430Z,3.87
2023-01-21T07:22:27.838Z,3.85
2023-01-21T07:24:54.599Z,3.93
2023-01-21T07:27:24.390Z,3.76
2023-01-21T07:29:52.626Z,3.61
2023-01-21T07:32:19.432Z,4.00
2023-01-21T07:34:46.128Z,3.70
2023-01-21T07:37:15.868Z,3.84
2023-01-21T07:39:53.149Z,4.05
2023-01-21T07:42:24.677Z,4.08
2023-01-21T07:44:55.812Z,3.94
2023-01-21T07:47:22.642Z,3.61
2023-01-21T07:49:49.847Z,2.90
2023-01-21T07:52:16.798Z,4.05
2023-01-21T07:54:44.767Z,3.97
2023-01-21T07:57:23.678Z,4.12
2023-01-21T07:59:50.272Z,4.11
2023-01-21T08:02:22.413Z,4.07
2023-01-21T08:05:11.600Z,3.96
2023-01-21T08:07:39.593Z,4.06
2023-01-21T08:10:34.948Z,3.89
2023-01-21T08:13:13.062Z,4.15
2023-01-21T08:15:47.802Z,4.13
2023-01-21T08:18:23.215Z,4.09
2023-01-21T08:21:26.446Z,4.16
2023-01-21T08:24:07.186Z,4.05
2023-01-21T08:27:06.124Z,4.22
2023-01-21T08:29:48.801Z,4.28
2023-01-21T08:32:27.089Z,3.90
2023-01-21T08:35:13.713Z,4.25
2023-01-21T08:37:56.629Z,4.24
2023-01-21T08:40:43.848Z,4.50
2023-01-21T08:43:25.286Z,4.40
2023-01-21T08:46:01.771Z,4.59
2023-01-21T08:48:44.323Z,4.59
2023-01-21T08:51:20.870Z,4.55
2023-01-21T08:53:56.638Z,4.37
2023-01-21T08:56:49.625Z,4.50
2023-01-21T08:59:37.024Z,4.66
2023-01-21T09:02:10.407Z,4.53
2023-01-21T09:04:48.147Z,4.36
2023-01-21T09:07:15.766Z,4.23
2023-01-21T09:09:48.663Z,4.66
2023-01-21T09:12:21.615Z,4.43
2023-01-21T09:15:03.658Z,4.76
2023-01-21T09:17:34.200Z,4.12
2023-01-21T09:20:02.346Z,4.88
2023-01-21T09:22:29.127Z,4.92
2023-01-21T09:25:10.316Z,4.90
2023-01-21T09:27:44.819Z,4.91
2023-01-21T09:30:20.421Z,5.02
2023-01-21T09:32:51.611Z,4.78
2023-01-21T09:35:26.452Z,4.80
2023-01-21T09:38:06.201Z,4.87
2023-01-21T09:40:35.551Z,4.92
2023-01-21T09:43:25.107Z,5.01
2023-01-21T09:46:06.060Z,4.47
2023-01-21T09:48:48.068Z,4.89
2023-01-21T09:52:09.541Z,4.80
2023-01-21T09:54:39.075Z,4.87
2023-01-21T09:57:17.294Z,4.96
2023-01-21T10:00:01.075Z,5.07
2023-01-21T10:05:30.719Z,5.08
2023-01-21T10:08:29.741Z,4.86
2023-01-21T10:11:47.670Z,5.15
2023-01-21T10:14:45.549Z,4.88
2023-01-21T10:17:42.083Z,5.08
2023-01-21T10:20:33.479Z,5.29
2023-01-21T10:23:32.787Z,5.26
2023-01-21T10:26:13.572Z,5.25
2023-01-21T10:29:02.852Z,5.38
2023-01-21T10:32:26.876Z,5.53
2023-01-21T10:35:04.407Z,5.33
2023-01-21T10:37:48.409Z,5.32
2023-01-21T10:40:49.235Z,5.51
2023-01-21T10:43:59.033Z,5.63
2023-01-21T10:46:46.793Z,5.55
2023-01-21T10:49:20.833Z,5.57
2023-01-21T10:52:34.901Z,5.55
2023-01-21T10:55:45.154Z,5.60
2023-01-21T10:58:42.185Z,5.59
2023-01-21T11:01:40.754Z,4.78
2023-01-21T11:04:34.033Z,5.42
2023-01-21T11:07:25.950Z,5.54
2023-01-21T11:10:04.788Z,5.19
2023-01-21T11:12:51.414Z,5.60
2023-01-21T11:15:46.691Z,5.40
2023-01-21T11:18:57.087Z,5.62
2023-01-21T11:21:37.404Z,5.67
2023-01-21T11:24:32.761Z,5.78
2023-01-21T11:27:07.568Z,5.67
2023-01-21T11:29:48.648Z,5.55
2023-01-21T11:32:25.989Z,5.64
2023-01-21T11:35:21.692Z,5.72
2023-01-21T11:38:11.759Z,5.64
2023-01-21T11:40:56.098Z,5.68
2023-01-21T11:47:12.412Z,5.59
2023-01-21T11:49:48.211Z,5.52
2023-01-21T11:52:31.522Z,5.67
2023-01-21T11:55:17.427Z,5.69
2023-01-21T11:58:10.834Z,5.58
2023-01-21T12:00:50.097Z,5.60
2023-01-21T12:03:27.943Z,5.44
2023-01-21T12:06:06.220Z,5.68
2023-01-21T12:08:41.984Z,5.84
2023-01-21T12:11:16.492Z,5.73
2023-01-21T12:13:57.383Z,5.79
2023-01-21T12:16:55.955Z,5.76
2023-01-21T12:19:46.904Z,5.75
2023-01-21T12:22:48.615Z,5.53
2023-01-21T12:25:41.065Z,5.78
2023-01-21T12:28:39.600Z,5.83
2023-01-21T12:31:21.715Z,5.93
2023-01-21T12:34:25.755Z,5.93
2023-01-21T12:37:02.116Z,5.63
2023-01-21T12:40:09.824Z,5.83
2023-01-21T12:42:43.655Z,5.93
2023-01-21T12:45:28.200Z,5.25
2023-01-21T12:48:30.732Z,5.71
2023-01-21T12:51:14.867Z,5.90
2023-01-21T12:53:50.840Z,5.73
2023-01-21T12:56:37.008Z,5.59
2023-01-21T12:59:31.550Z,5.57
2023-01-21T13:02:25.298Z,5.59
2023-01-21T13:05:05.189Z,5.56
2023-01-21T13:07:55.655Z,5.31
2023-01-21T13:11:30.172Z,5.82
2023-01-21T13:14:02.662Z,5.64
2023-01-21T13:17:08.298Z,5.71
2023-01-21T13:19:35.736Z,5.88
2023-01-21T13:22:49.606Z,5.98
2023-01-21T13:25:37.938Z,5.72
2023-01-21T13:28:47.332Z,6.03
2023-01-21T13:34:39.525Z,6.14
2023-01-21T13:37:35.019Z,6.03
2023-01-21T13:40:39.621Z,5.95
2023-01-21T13:43:41.069Z,6.10
2023-01-21T13:46:44.023Z,6.09
2023-01-21T13:50:01.998Z,5.81
2023-01-21T13:52:43.834Z,6.08
2023-01-21T13:55:53.282Z,6.10
2023-01-21T13:58:49.921Z,5.66
2023-01-21T14:01:52.074Z,5.95
2023-01-21T14:04:43.405Z,5.83
2023-01-21T14:07:31.465Z,5.94
2023-01-21T14:10:41.098Z,5.98
2023-01-21T14:13:34.545Z,5.64
2023-01-21T14:16:28.901Z,6.00
2023-01-21T14:19:37.262Z,5.97
2023-01-21T14:22:54.442Z,5.91
2023-01-21T14:25:44.988Z,5.40
2023-01-21T14:28:42.170Z,6.03
2023-01-21T14:31:33.525Z,5.75
2023-01-21T14:34:48.844Z,5.94
2023-01-21T14:41:13.315Z,5.93
2023-01-21T14:43:50.868Z,5.99
2023-01-21T14:47:23.038Z,5.85
2023-01-21T14:50:18.067Z,5.43
2023-01-21T14:53:05.226Z,5.93
2023-01-21T14:55:48.179Z,5.81
2023-01-21T14:58:27.994Z,5.98
2023-01-21T15:01:17.032Z,5.83
2023-01-21T15:06:58.037Z,5.51
2023-01-21T15:09:58.559Z,5.59
2023-01-21T15:12:30.287Z,5.89
2023-01-21T15:15:48.501Z,6.01
2023-01-21T15:18:56.225Z,5.93
2023-01-21T15:21:44.304Z,5.89
2023-01-21T15:24:57.271Z,5.87
2023-01-21T15:27:44.486Z,5.84
2023-01-21T15:30:54.008Z,5.87
2023-01-21T15:41:46.896Z,5.92
2023-01-21T16:04:19.980Z,5.73
2023-01-21T16:50:25.808Z,5.68
2023-01-21T16:56:48.554Z,5.75
2023-01-21T17:03:17.130Z,5.71
2023-01-21T17:05:58.258Z,5.52
2023-01-21T17:08:36.619Z,5.93
2023-01-21T17:11:23.653Z,5.83
2023-01-21T17:14:09.790Z,5.65
2023-01-21T17:16:46.416Z,5.88
2023-01-21T17:19:39.520Z,5.77
2023-01-21T17:22:24.828Z,5.68
2023-01-21T17:25:36.845Z,5.79
2023-01-21T17:28:30.636Z,5.81
2023-01-21T17:31:43.649Z,5.86
2023-01-21T17:34:35.153Z,5.86
2023-01-21T17:37:02.328Z,5.73
2023-01-21T17:39:56.023Z,5.19
2023-01-21T17:42:32.937Z,5.44
2023-01-21T17:45:19.662Z,5.69
2023-01-21T17:48:10.914Z,5.67
2023-01-21T17:50:49.489Z,5.66
2023-01-21T17:53:37.969Z,5.79
2023-01-21T17:56:12.939Z,5.71
2023-01-21T17:59:01.319Z,5.69
2023-01-21T18:02:09.911Z,5.77
2023-01-21T18:04:52.587Z,4.95
2023-01-21T18:07:38.402Z,5.17
2023-01-21T18:10:17.246Z,4.79
2023-01-21T18:12:52.167Z,5.75
2023-01-21T18:15:20.816Z,5.88
2023-01-21T18:17:56.531Z,5.84
2023-01-21T18:20:32.213Z,5.54
2023-01-21T18:22:59.465Z,5.75
2023-01-21T18:25:33.784Z,5.75
2023-01-21T18:28:04.029Z,5.34
2023-01-21T18:30:33.604Z,5.14
2023-01-21T18:33:03.510Z,4.70
2023-01-21T18:35:37.762Z,5.67
2023-01-21T18:38:10.838Z,4.63
2023-01-21T18:43:40.693Z,4.78
2023-01-21T18:46:17.217Z,6.02
2023-01-21T18:48:43.994Z,5.53
2023-01-21T18:51:13.760Z,5.88
2023-01-21T19:03:58.482Z,5.43
2023-01-21T19:06:30.004Z,5.23
2023-01-21T19:09:55.302Z,6.01
2023-01-21T19:12:34.380Z,5.18
2023-01-21T19:15:02.086Z,6.06
2023-01-21T19:17:30.723Z,4.72
2023-01-21T19:20:08.950Z,5.53
2023-01-21T19:22:43.741Z,5.60
2023-01-21T19:25:10.749Z,5.62
2023-01-21T19:27:44.491Z,5.89
2023-01-21T19:30:31.745Z,6.12
2023-01-21T19:33:06.963Z,6.02
2023-01-21T19:35:42.285Z,5.83
2023-01-21T19:38:30.429Z,5.50
2023-01-21T19:41:06.642Z,5.97
2023-01-21T19:43:44.504Z,6.01
2023-01-21T19:46:24.349Z,6.04
2023-01-21T19:49:05.229Z,5.68
2023-01-21T19:51:46.849Z,5.67
2023-01-21T19:54:21.265Z,5.95
2023-01-21T19:57:09.302Z,6.01
2023-01-21T19:59:48.236Z,5.16
2023-01-21T20:02:26.664Z,5.98
2023-01-21T20:05:04.163Z,6.13
2023-01-21T20:07:43.750Z,6.10
2023-01-21T20:10:38.751Z,5.81
2023-01-21T20:13:20.090Z,5.62
2023-01-21T20:16:07.036Z,6.04
2023-01-21T20:18:34.341Z,5.89
2023-01-21T20:21:54.743Z,6.11
2023-01-21T20:24:48.390Z,5.70
2023-01-21T20:27:37.603Z,5.72
2023-01-21T20:30:16.634Z,5.90
2023-01-21T20:33:04.993Z,6.05
2023-01-21T20:35:33.405Z,5.91
2023-01-21T20:38:00.331Z,4.97
2023-01-21T20:40:41.142Z,6.09
2023-01-21T20:43:33.696Z,6.10
2023-01-21T20:46:14.212Z,6.09
2023-01-21T20:51:41.579Z,4.92
2023-01-21T20:54:23.208Z,6.10
2023-01-21T20:56:56.249Z,6.12
2023-01-21T20:59:32.547Z,6.10
2023-01-21T21:04:52.394Z,6.05
2023-01-21T21:10:41.468Z,6.01
2023-01-21T21:13:29.930Z,5.65
2023-01-21T21:16:26.988Z,5.94
2023-01-21T21:19:01.393Z,4.77
2023-01-21T21:21:36.537Z,6.14
2023-01-21T21:24:06.497Z,6.17
2023-01-21T21:27:03.542Z,5.60
2023-01-21T21:29:31.257Z,6.02
2023-01-21T21:32:04.764Z,6.16
2023-01-21T21:37:43.034Z,6.06
2023-01-21T21:43:33.125Z,5.83
2023-01-21T21:46:34.703Z,5.98
2023-01-21T21:49:19.701Z,5.73
2023-01-21T21:51:50.775Z,5.98
2023-01-21T21:54:22.743Z,5.89
2023-01-21T21:56:49.606Z,5.96
2023-01-21T21:59:29.050Z,5.92
2023-01-21T22:02:05.258Z,5.93
2023-01-21T22:04:45.966Z,5.47
2023-01-21T22:10:34.027Z,5.95
2023-01-21T22:13:02.613Z,5.68
2023-01-21T22:15:43.398Z,5.61
2023-01-21T22:18:26.132Z,5.79
2023-01-21T22:21:11.888Z,5.71
2023-01-21T22:23:56.894Z,5.53
2023-01-21T22:26:28.250Z,5.90
2023-01-21T22:29:10.171Z,5.77
2023-01-21T22:31:50.757Z,5.81
2023-01-21T22:34:30.591Z,5.71
2023-01-21T22:37:10.703Z,5.86
2023-01-21T22:39:55.268Z,5.82
2023-01-21T22:42:33.424Z,5.20
2023-01-21T22:45:32.056Z,4.93
2023-01-21T22:48:18.899Z,5.73
2023-01-21T22:51:14.900Z,5.73
2023-01-21T22:53:44.152Z,4.26
2023-01-21T22:56:39.861Z,5.04
2023-01-21T22:59:42.802Z,4.24
2023-01-21T23:02:12.270Z,5.03
2023-01-21T23:05:02.330Z,4.49
2023-01-21T23:07:55.785Z,5.69
2023-01-21T23:10:41.681Z,5.28
2023-01-21T23:13:31.755Z,5.71
2023-01-21T23:16:16.734Z,5.60
2023-01-21T23:19:00.564Z,5.51
2023-01-21T23:21:37.821Z,5.81
2023-01-21T23:24:14.957Z,5.70
2023-01-21T23:26:56.447Z,5.49
2023-01-21T23:29:37.586Z,5.79
2023-01-21T23:32:22.740Z,5.68
2023-01-21T23:35:03.437Z,5.83
2023-01-21T23:40:46.192Z,5.86
2023-01-21T23:43:28.002Z,5.81
2023-01-21T23:46:13.304Z,5.55
2023-01-21T23:48:58.618Z,5.78
2023-01-21T23:51:26.697Z,5.78
2023-01-21T23:54:10.734Z,5.75
2023-01-21T23:57:02.234Z,5.39
2023-01-21T23:59:46.129Z,5.61
